Accueil
METAR-TAF:

METAR-TAF

Aéroports :

Matagami, Québec, Canada

latitude: 49-46N, longitude: 077-49W, altitude: 281 m

Observation

Le bulletin a été fait il y a 30 heures et 14 minutes, à 00:00 UTC
Vent 2 kt de nord
Température 14°C
Humidité 88%
Pression 1019 hPa
Visibilité: 14.5 km
Nuages épars à une hauteur de 9500 ft
Nuages épars à une hauteur de 21000 ft
Nuages épars à une hauteur de 23000 ft

METAR: CYNM 210000Z AUTO 01002KT 9SM SCT095 SCT210 SCT230 14/12 A3009 RMK SLP198

Heure: 02:14 (06:14 UTC)


TAF: absent

Observations et prévisions météorologiques de plus de 4000 aéroports (messages METAR et TAF).

Les stations disponibles sont représentées par des disques jaunes et rouges sur la carte.

Passer la souris dessus pour voir le nom de la station.

Cliquer dessus pour voir les observations et prévisions météorologiques.

Pour changer de carte: cliquez sur les boutons verts avec une croix noire pour zoomer, sur le bouton vert avec un tiret pour effectuer un zoom arrière, ou sur les flèches vertes pour les cartes adjacentes.


METAR-TAF: